createdAt,value
2023-04-27T00:00:57.417Z,50.849503
2023-04-27T00:01:57.512Z,50.849541
2023-04-27T00:02:57.548Z,50.849514
2023-04-27T00:03:57.479Z,50.849560
2023-04-27T00:04:57.730Z,50.849560
2023-04-27T00:05:57.433Z,50.849525
2023-04-27T00:06:57.334Z,50.849571
2023-04-27T00:07:57.318Z,50.849522
2023-04-27T00:08:57.349Z,50.849537
2023-04-27T00:09:57.335Z,50.849567
2023-04-27T00:10:57.346Z,50.849548
2023-04-27T00:11:57.285Z,50.849564
2023-04-27T00:12:57.297Z,50.849545
2023-04-27T00:13:57.470Z,50.849506
2023-04-27T00:14:57.270Z,50.849503
2023-04-27T00:15:57.325Z,50.849510
2023-04-27T00:16:57.417Z,50.849556
2023-04-27T00:17:57.271Z,50.849567
2023-04-27T00:18:57.241Z,50.849564
2023-04-27T00:19:57.221Z,50.849522
2023-04-27T00:20:57.218Z,50.849552
2023-04-27T00:21:57.251Z,50.849537
2023-04-27T00:22:57.240Z,50.849541
2023-04-27T00:23:57.204Z,50.849525
2023-04-27T00:24:57.199Z,50.849541
2023-04-27T00:25:57.177Z,50.849552
2023-04-27T00:26:57.179Z,50.849533
2023-04-27T00:27:57.169Z,50.849537
2023-04-27T00:28:57.217Z,50.849560
2023-04-27T00:29:57.140Z,50.849586
2023-04-27T00:30:57.142Z,50.849533
2023-04-27T00:31:57.208Z,50.849541
2023-04-27T00:32:57.172Z,50.849529
2023-04-27T00:33:57.113Z,50.849495
2023-04-27T00:34:57.133Z,50.849541
2023-04-27T00:35:57.096Z,50.849564
2023-04-27T00:36:57.103Z,50.849533
2023-04-27T00:37:57.128Z,50.849533
2023-04-27T00:38:57.093Z,50.849575
2023-04-27T00:39:57.061Z,50.849537
2023-04-27T00:40:57.094Z,50.849545
2023-04-27T00:41:57.051Z,50.849575
2023-04-27T00:42:57.081Z,50.849533
2023-04-27T00:43:57.045Z,50.849518
2023-04-27T00:44:57.039Z,50.849522
2023-04-27T00:45:57.101Z,50.849552
2023-04-27T00:46:57.024Z,50.849537
2023-04-27T00:47:57.049Z,50.849525
2023-04-27T00:48:57.002Z,50.849510
2023-04-27T00:49:56.998Z,50.849556
2023-04-27T00:50:56.982Z,50.849537
2023-04-27T00:51:57.028Z,50.849529
2023-04-27T00:52:56.969Z,50.849506
2023-04-27T00:53:56.966Z,50.849510
2023-04-27T00:54:56.939Z,50.849541
2023-04-27T00:55:56.941Z,50.849537
2023-04-27T00:56:56.945Z,50.849541
2023-04-27T00:57:56.955Z,50.849541
2023-04-27T00:58:56.950Z,50.849510
2023-04-27T00:59:56.920Z,50.849522
2023-04-27T01:00:56.937Z,50.849571
2023-04-27T01:01:56.925Z,50.849560
2023-04-27T01:02:57.013Z,50.849506
2023-04-27T01:03:57.111Z,50.849533
2023-04-27T01:04:56.875Z,50.849548
2023-04-27T01:05:56.914Z,50.849522
2023-04-27T01:06:56.856Z,50.849533
2023-04-27T01:07:56.859Z,50.849533
2023-04-27T01:08:56.881Z,50.849529
2023-04-27T01:09:56.837Z,50.849495
2023-04-27T01:10:56.815Z,50.849457
2023-04-27T01:11:56.874Z,50.849503
2023-04-27T01:12:56.806Z,50.849522
2023-04-27T01:13:56.805Z,50.849533
2023-04-27T01:14:56.810Z,50.849506
2023-04-27T01:15:56.789Z,50.849510
2023-04-27T01:16:56.902Z,50.849487
2023-04-27T01:17:56.843Z,50.849499
2023-04-27T01:18:56.762Z,50.849491
2023-04-27T01:19:56.809Z,50.849529
2023-04-27T01:20:56.745Z,50.849537
2023-04-27T01:21:56.734Z,50.849533
2023-04-27T01:22:56.737Z,50.849529
2023-04-27T01:23:56.724Z,50.849514
2023-04-27T01:24:56.788Z,50.849499
2023-04-27T01:25:56.746Z,50.849487
2023-04-27T01:26:56.691Z,50.849506
2023-04-27T01:27:56.689Z,50.849499
2023-04-27T01:28:56.680Z,50.849514
2023-04-27T01:29:56.668Z,50.849541
2023-04-27T01:30:56.685Z,50.849514
2023-04-27T01:31:56.741Z,50.849514
2023-04-27T01:32:56.732Z,50.849522
2023-04-27T01:33:56.660Z,50.849510
2023-04-27T01:34:56.625Z,50.849506
2023-04-27T01:35:56.636Z,50.849503
2023-04-27T01:36:56.620Z,50.849506
2023-04-27T01:37:56.646Z,50.849514
2023-04-27T01:38:56.658Z,50.849514
2023-04-27T01:39:56.632Z,50.849514
2023-04-27T01:40:56.581Z,50.849506
2023-04-27T01:41:58.361Z,50.849506
2023-04-27T01:42:56.592Z,50.849487
2023-04-27T01:43:56.561Z,50.849503
2023-04-27T01:44:56.562Z,50.849522
2023-04-27T01:45:56.625Z,50.849522
2023-04-27T01:46:56.563Z,50.849525
2023-04-27T01:47:56.581Z,50.849514
2023-04-27T01:48:56.548Z,50.849533
2023-04-27T01:49:56.531Z,50.849518
2023-04-27T01:50:56.513Z,50.849541
2023-04-27T01:51:56.521Z,50.849529
2023-04-27T01:52:56.486Z,50.849533
2023-04-27T01:53:56.542Z,50.849522
2023-04-27T01:54:56.496Z,50.849522
2023-04-27T01:55:56.491Z,50.849518
2023-04-27T01:56:56.468Z,50.849518
2023-04-27T01:57:56.484Z,50.849533
2023-04-27T01:58:56.447Z,50.849518
2023-04-27T01:59:56.466Z,50.849514
2023-04-27T02:00:56.467Z,50.849525
2023-04-27T02:01:56.562Z,50.849525
2023-04-27T02:02:56.537Z,50.849525
2023-04-27T02:03:57.103Z,50.849518
2023-04-27T02:04:56.423Z,50.849514
2023-04-27T02:05:56.427Z,50.849529
2023-04-27T02:06:56.418Z,50.849537
2023-04-27T02:07:56.382Z,50.849545
2023-04-27T02:08:56.372Z,50.849533
2023-04-27T02:09:56.383Z,50.849522
2023-04-27T02:10:56.358Z,50.849556
2023-04-27T02:11:56.382Z,50.849533
2023-04-27T02:12:56.372Z,50.849518
2023-04-27T02:13:56.342Z,50.849525
2023-04-27T02:14:56.331Z,50.849541
2023-04-27T02:15:56.410Z,50.849529
2023-04-27T02:16:57.017Z,50.849537
2023-04-27T02:17:56.339Z,50.849525
2023-04-27T02:18:56.319Z,50.849567
2023-04-27T02:19:56.287Z,50.849552
2023-04-27T02:20:56.273Z,50.849564
2023-04-27T02:21:56.335Z,50.849495
2023-04-27T02:22:56.267Z,50.849506
2023-04-27T02:23:56.318Z,50.849541
2023-04-27T02:24:56.240Z,50.849533
2023-04-27T02:25:56.278Z,50.849518
2023-04-27T02:26:56.250Z,50.849525
2023-04-27T02:27:56.264Z,50.849525
2023-04-27T02:28:56.247Z,50.849552
2023-04-27T02:29:56.231Z,50.849545
2023-04-27T02:30:56.202Z,50.849579
2023-04-27T02:31:56.231Z,50.849552
2023-04-27T02:32:56.238Z,50.849548
2023-04-27T02:33:56.236Z,50.849567
2023-04-27T02:34:56.169Z,50.849586
2023-04-27T02:35:56.172Z,50.849575
2023-04-27T02:36:56.156Z,50.849552
2023-04-27T02:37:56.160Z,50.849548
2023-04-27T02:38:56.142Z,50.849560
2023-04-27T02:39:56.173Z,50.849575
2023-04-27T02:40:56.125Z,50.849552
2023-04-27T02:41:56.128Z,50.849567
2023-04-27T02:42:56.109Z,50.849556
2023-04-27T02:43:56.109Z,50.849575
2023-04-27T02:44:56.086Z,50.849567
2023-04-27T02:45:56.123Z,50.849560
2023-04-27T02:46:56.145Z,50.849541
2023-04-27T02:47:56.124Z,50.849552
2023-04-27T02:48:56.065Z,50.849564
2023-04-27T02:49:56.074Z,50.849567
2023-04-27T02:50:56.077Z,50.849564
2023-04-27T02:51:56.038Z,50.849529
2023-04-27T02:52:56.031Z,50.849590
2023-04-27T02:53:56.019Z,50.849613
2023-04-27T02:54:56.005Z,50.849579
2023-04-27T02:55:56.016Z,50.849571
2023-04-27T02:56:56.040Z,50.849533
2023-04-27T02:57:56.000Z,50.849548
2023-04-27T02:58:55.971Z,50.849564
2023-04-27T02:59:55.977Z,50.849609
2023-04-27T03:00:56.018Z,50.849640
2023-04-27T03:01:55.970Z,50.849609
2023-04-27T03:02:56.084Z,50.849548
2023-04-27T03:03:56.139Z,50.849552
2023-04-27T03:04:55.938Z,50.849586
2023-04-27T03:05:55.937Z,50.849613
2023-04-27T03:06:55.914Z,50.849606
2023-04-27T03:07:55.924Z,50.849545
2023-04-27T03:08:55.930Z,50.849533
2023-04-27T03:09:55.905Z,50.849567
2023-04-27T03:10:55.888Z,50.849598
2023-04-27T03:11:55.889Z,50.849567
2023-04-27T03:12:55.880Z,50.849632
2023-04-27T03:13:55.869Z,50.849590
2023-04-27T03:14:55.905Z,50.849602
2023-04-27T03:15:55.909Z,50.849590
2023-04-27T03:16:55.898Z,50.849674
2023-04-27T03:17:55.899Z,50.849625
2023-04-27T03:18:55.817Z,50.849586
2023-04-27T03:19:55.827Z,50.849590
2023-04-27T03:20:55.823Z,50.849583
2023-04-27T03:21:55.801Z,50.849651
2023-04-27T03:22:55.798Z,50.849659
2023-04-27T03:23:55.802Z,50.849636
2023-04-27T03:24:55.827Z,50.849598
2023-04-27T03:25:55.781Z,50.849552
2023-04-27T03:26:55.778Z,50.849640
2023-04-27T03:27:55.814Z,50.849659
2023-04-27T03:28:55.748Z,50.849552
2023-04-27T03:29:55.777Z,50.849560
2023-04-27T03:30:55.733Z,50.849590
2023-04-27T03:31:55.887Z,50.849640
2023-04-27T03:32:55.723Z,50.849651
2023-04-27T03:33:55.777Z,50.849651
2023-04-27T03:34:55.700Z,50.849602
2023-04-27T03:35:55.697Z,50.849632
2023-04-27T03:36:55.682Z,50.849636
2023-04-27T03:37:55.690Z,50.849648
2023-04-27T03:38:55.654Z,50.849613
2023-04-27T03:39:55.710Z,50.849594
2023-04-27T03:40:55.681Z,50.849621
2023-04-27T03:41:55.652Z,50.849594
2023-04-27T03:42:57.067Z,50.849571
2023-04-27T03:43:55.642Z,50.849575
2023-04-27T03:44:55.620Z,50.849640
2023-04-27T03:45:55.684Z,50.849628
2023-04-27T03:46:55.646Z,50.849602
2023-04-27T03:47:55.642Z,50.849602
2023-04-27T03:48:55.586Z,50.849602
2023-04-27T03:49:55.638Z,50.849560
2023-04-27T03:50:55.613Z,50.849571
2023-04-27T03:51:55.649Z,50.849560
2023-04-27T03:52:55.550Z,50.849567
2023-04-27T03:53:55.563Z,50.849598
2023-04-27T03:54:55.640Z,50.849598
2023-04-27T03:55:55.538Z,50.849564
2023-04-27T03:56:55.525Z,50.849579
2023-04-27T03:57:55.524Z,50.849564
2023-04-27T03:58:55.519Z,50.849564
2023-04-27T03:59:55.513Z,50.849556
2023-04-27T04:00:55.611Z,50.849575
2023-04-27T04:01:55.558Z,50.849560
2023-04-27T04:02:55.743Z,50.849575
2023-04-27T04:03:55.598Z,50.849579
2023-04-27T04:04:55.704Z,50.849586
2023-04-27T04:05:55.464Z,50.849548
2023-04-27T04:06:55.472Z,50.849510
2023-04-27T04:07:55.449Z,50.849510
2023-04-27T04:08:55.438Z,50.849533
2023-04-27T04:09:55.428Z,50.849548
2023-04-27T04:10:55.437Z,50.849495
2023-04-27T04:11:55.459Z,50.849545
2023-04-27T04:12:55.414Z,50.849525
2023-04-27T04:13:55.398Z,50.849522
2023-04-27T04:14:55.380Z,50.849525
2023-04-27T04:15:55.439Z,50.849560
2023-04-27T04:16:55.362Z,50.849579
2023-04-27T04:17:55.420Z,50.849525
2023-04-27T04:18:55.402Z,50.849552
2023-04-27T04:19:55.366Z,50.849518
2023-04-27T04:20:55.356Z,50.849476
2023-04-27T04:21:55.361Z,50.849464
2023-04-27T04:22:55.320Z,50.849518
2023-04-27T04:23:55.323Z,50.849533
2023-04-27T04:24:55.390Z,50.849545
2023-04-27T04:25:55.316Z,50.849556
2023-04-27T04:26:55.310Z,50.849552
2023-04-27T04:27:55.291Z,50.849533
2023-04-27T04:28:55.267Z,50.849525
2023-04-27T04:29:55.292Z,50.849552
2023-04-27T04:30:55.403Z,50.849564
2023-04-27T04:31:55.255Z,50.849560
2023-04-27T04:32:55.278Z,50.849537
2023-04-27T04:33:55.250Z,50.849571
2023-04-27T04:34:55.224Z,50.849571
2023-04-27T04:35:55.227Z,50.849567
2023-04-27T04:36:55.244Z,50.849552
2023-04-27T04:37:55.229Z,50.849548
2023-04-27T04:38:55.199Z,50.849533
2023-04-27T04:39:55.198Z,50.849525
2023-04-27T04:40:55.321Z,50.849529
2023-04-27T04:41:55.180Z,50.849586
2023-04-27T04:42:55.184Z,50.849583
2023-04-27T04:43:55.206Z,50.849548
2023-04-27T04:44:55.145Z,50.849556
2023-04-27T04:45:55.170Z,50.849548
2023-04-27T04:46:55.182Z,50.849552
2023-04-27T04:47:55.139Z,50.849533
2023-04-27T04:48:55.109Z,50.849529
2023-04-27T04:49:55.172Z,50.849545
2023-04-27T04:50:55.105Z,50.849545
2023-04-27T04:51:55.101Z,50.849541
2023-04-27T04:52:55.090Z,50.849525
2023-04-27T04:53:55.083Z,50.849529
2023-04-27T04:54:55.071Z,50.849537
2023-04-27T04:55:55.124Z,50.849518
2023-04-27T04:56:55.044Z,50.849541
2023-04-27T04:57:55.057Z,50.849529
2023-04-27T04:58:55.069Z,50.849522
2023-04-27T04:59:55.612Z,50.849541
2023-04-27T05:00:55.044Z,50.849541
2023-04-27T05:01:55.293Z,50.849514
2023-04-27T05:02:55.100Z,50.849537
2023-04-27T05:03:55.084Z,50.849537
2023-04-27T05:04:55.305Z,50.849556
2023-04-27T05:05:55.056Z,50.849564
2023-04-27T05:06:54.999Z,50.849571
2023-04-27T05:07:55.020Z,50.849556
2023-04-27T05:08:55.241Z,50.849537
2023-04-27T05:09:55.002Z,50.849533
2023-04-27T05:10:55.222Z,50.849499
2023-04-27T05:11:55.060Z,50.849483
2023-04-27T05:12:55.278Z,50.849537
2023-04-27T05:13:54.954Z,50.849525
2023-04-27T05:14:55.001Z,50.849525
2023-04-27T05:15:54.929Z,50.849514
2023-04-27T05:16:55.552Z,50.849495
2023-04-27T05:17:54.899Z,50.849510
2023-04-27T05:18:54.999Z,50.849522
2023-04-27T05:19:54.941Z,50.849541
2023-04-27T05:20:55.706Z,50.849495
2023-04-27T05:21:54.887Z,50.849480
2023-04-27T05:22:54.854Z,50.849503
2023-04-27T05:23:54.838Z,50.849510
2023-04-27T05:24:54.839Z,50.849541
2023-04-27T05:25:54.850Z,50.849522
2023-04-27T05:26:54.941Z,50.849438
2023-04-27T05:27:54.813Z,50.849457
2023-04-27T05:28:54.855Z,50.849472
2023-04-27T05:29:54.791Z,50.849476
2023-04-27T05:30:54.822Z,50.849525
2023-04-27T05:31:54.844Z,50.849442
2023-04-27T05:32:54.806Z,50.849468
2023-04-27T05:33:54.814Z,50.849487
2023-04-27T05:34:54.924Z,50.849533
2023-04-27T05:35:54.820Z,50.849545
2023-04-27T05:36:54.925Z,50.849514
2023-04-27T05:37:54.747Z,50.849445
2023-04-27T05:38:55.560Z,50.849445
2023-04-27T05:39:54.709Z,50.849525
2023-04-27T05:40:55.584Z,50.849506
2023-04-27T05:41:54.730Z,50.849476
2023-04-27T05:42:54.727Z,50.849518
2023-04-27T05:43:54.717Z,50.849510
2023-04-27T05:44:54.692Z,50.849545
2023-04-27T05:45:54.731Z,50.849503
2023-04-27T05:46:54.696Z,50.849510
2023-04-27T05:47:54.767Z,50.849514
2023-04-27T05:48:54.642Z,50.849522
2023-04-27T05:49:54.635Z,50.849506
2023-04-27T05:50:54.634Z,50.849480
2023-04-27T05:51:54.771Z,50.849468
2023-04-27T05:52:54.654Z,50.849499
2023-04-27T05:53:54.668Z,50.849480
2023-04-27T05:54:54.601Z,50.849503
2023-04-27T05:55:54.650Z,50.849510
2023-04-27T05:56:54.663Z,50.849495
2023-04-27T05:58:06.585Z,50.849529
2023-04-27T05:58:55.631Z,50.849499
2023-04-27T05:59:54.557Z,50.849518
2023-04-27T06:00:54.565Z,50.849556
2023-04-27T06:01:54.586Z,50.849529
2023-04-27T06:02:54.665Z,50.849533
2023-04-27T06:03:54.579Z,50.849491
2023-04-27T06:04:54.557Z,50.849487
2023-04-27T06:05:54.966Z,50.849503
2023-04-27T06:06:54.514Z,50.849491
2023-04-27T06:07:54.486Z,50.849503
2023-04-27T06:08:54.491Z,50.849483
2023-04-27T06:09:54.466Z,50.849525
2023-04-27T06:10:54.594Z,50.849510
2023-04-27T06:11:54.454Z,50.849514
2023-04-27T06:12:54.471Z,50.849483
2023-04-27T06:13:54.429Z,50.849480
2023-04-27T06:14:54.441Z,50.849506
2023-04-27T06:15:54.436Z,50.849518
2023-04-27T06:16:54.499Z,50.849499
2023-04-27T06:17:54.494Z,50.849522
2023-04-27T06:18:54.429Z,50.849518
2023-04-27T06:19:54.438Z,50.849518
2023-04-27T06:20:54.393Z,50.849545
2023-04-27T06:21:54.377Z,50.849537
2023-04-27T06:22:54.435Z,50.849525
2023-04-27T06:23:54.373Z,50.849548
2023-04-27T06:24:54.349Z,50.849503
2023-04-27T06:25:54.371Z,50.849552
2023-04-27T06:26:54.333Z,50.849537
2023-04-27T06:27:54.333Z,50.849499
2023-04-27T06:28:54.338Z,50.849503
2023-04-27T06:29:54.297Z,50.849560
2023-04-27T06:30:54.298Z,50.849556
2023-04-27T06:31:54.313Z,50.849518
2023-04-27T06:32:54.348Z,50.849552
2023-04-27T06:33:54.317Z,50.849525
2023-04-27T06:34:54.268Z,50.849487
2023-04-27T06:35:54.254Z,50.849480
2023-04-27T06:36:54.314Z,50.849480
2023-04-27T06:37:54.226Z,50.849487
2023-04-27T06:38:54.331Z,50.849495
2023-04-27T06:39:54.357Z,50.849518
2023-04-27T06:40:54.236Z,50.849522
2023-04-27T06:41:54.203Z,50.849491
2023-04-27T06:42:54.213Z,50.849483
2023-04-27T06:43:54.277Z,50.849495
2023-04-27T06:44:54.181Z,50.849506
2023-04-27T06:45:54.193Z,50.849503
2023-04-27T06:46:54.179Z,50.849495
2023-04-27T06:47:54.223Z,50.849472
2023-04-27T06:48:54.157Z,50.849476
2023-04-27T06:49:54.152Z,50.849453
2023-04-27T06:50:54.132Z,50.849472
2023-04-27T06:51:54.120Z,50.849506
2023-04-27T06:52:54.130Z,50.849499
2023-04-27T06:53:54.238Z,50.849510
2023-04-27T06:54:54.101Z,50.849518
2023-04-27T06:55:54.089Z,50.849491
2023-04-27T06:56:54.085Z,50.849491
2023-04-27T06:57:54.099Z,50.849464
2023-04-27T06:58:54.078Z,50.849514
2023-04-27T06:59:54.106Z,50.849503
2023-04-27T07:00:54.067Z,50.849487
2023-04-27T07:01:54.092Z,50.849453
2023-04-27T07:02:54.187Z,50.849483
2023-04-27T07:03:54.234Z,50.849476
2023-04-27T07:04:54.102Z,50.849495
2023-04-27T07:05:54.099Z,50.849514
2023-04-27T07:06:54.026Z,50.849499
2023-04-27T07:07:53.994Z,50.849464
2023-04-27T07:08:54.019Z,50.849457
2023-04-27T07:09:53.968Z,50.849464
2023-04-27T07:10:54.074Z,50.849483
2023-04-27T07:11:54.263Z,50.849503
2023-04-27T07:12:54.003Z,50.849491
2023-04-27T07:13:53.940Z,50.849480
2023-04-27T07:14:53.953Z,50.849499
2023-04-27T07:15:53.944Z,50.849495
2023-04-27T07:16:53.922Z,50.849529
2023-04-27T07:17:54.079Z,50.849525
2023-04-27T07:18:53.943Z,50.849518
2023-04-27T07:19:53.881Z,50.849541
2023-04-27T07:20:53.894Z,50.849506
2023-04-27T07:21:53.874Z,50.849514
2023-04-27T07:22:53.856Z,50.849522
2023-04-27T07:23:55.062Z,50.849510
2023-04-27T07:24:53.893Z,50.849495
2023-04-27T07:25:53.829Z,50.849525
2023-04-27T07:26:53.825Z,50.849499
2023-04-27T07:27:53.830Z,50.849491
2023-04-27T07:28:53.825Z,50.849499
2023-04-27T07:29:53.810Z,50.849499
2023-04-27T07:30:53.852Z,50.849506
2023-04-27T07:31:53.800Z,50.849518
2023-04-27T07:32:53.809Z,50.849522
2023-04-27T07:33:53.770Z,50.849510
2023-04-27T07:34:54.526Z,50.849491
2023-04-27T07:35:53.762Z,50.849510
2023-04-27T07:36:53.766Z,50.849495
2023-04-27T07:37:53.722Z,50.849506
2023-04-27T07:38:53.732Z,50.849510
2023-04-27T07:39:53.742Z,50.849495
2023-04-27T07:40:53.718Z,50.849518
2023-04-27T07:41:53.704Z,50.849522
2023-04-27T07:42:53.695Z,50.849510
2023-04-27T07:43:53.681Z,50.849529
2023-04-27T07:44:53.715Z,50.849518
2023-04-27T07:45:53.712Z,50.849533
2023-04-27T07:46:53.698Z,50.849522
2023-04-27T07:47:53.760Z,50.849529
2023-04-27T07:48:53.796Z,50.849537
2023-04-27T07:49:53.649Z,50.849503
2023-04-27T07:50:53.727Z,50.849510
2023-04-27T07:51:53.612Z,50.849525
2023-04-27T07:52:53.623Z,50.849487
2023-04-27T07:53:53.608Z,50.849506
2023-04-27T07:54:53.638Z,50.849518
2023-04-27T07:55:53.586Z,50.849514
2023-04-27T07:56:53.603Z,50.849537
2023-04-27T07:57:53.590Z,50.849487
2023-04-27T07:58:53.570Z,50.849487
2023-04-27T07:59:53.786Z,50.849514
2023-04-27T08:00:53.553Z,50.849537
2023-04-27T08:01:57.127Z,50.849522
2023-04-27T08:02:54.769Z,50.849487
2023-04-27T08:03:53.719Z,50.849495
2023-04-27T08:04:53.820Z,50.849480
2023-04-27T08:05:53.662Z,50.849487
2023-04-27T08:06:53.973Z,50.849506
2023-04-27T08:07:54.354Z,50.849510
2023-04-27T08:08:53.505Z,50.849503
2023-04-27T08:09:53.466Z,50.849487
2023-04-27T08:10:53.466Z,50.849483
2023-04-27T08:11:53.453Z,50.849503
2023-04-27T08:12:53.482Z,50.849506
2023-04-27T08:13:53.447Z,50.849533
2023-04-27T08:14:53.552Z,50.849541
2023-04-27T08:15:53.423Z,50.849525
2023-04-27T08:16:53.456Z,50.849529
2023-04-27T08:17:53.521Z,50.849518
2023-04-27T08:18:53.431Z,50.849541
2023-04-27T08:19:53.435Z,50.849533
2023-04-27T08:20:53.412Z,50.849514
2023-04-27T08:21:53.374Z,50.849541
2023-04-27T08:22:53.378Z,50.849552
2023-04-27T08:23:53.401Z,50.849556
2023-04-27T08:24:53.366Z,50.849545
2023-04-27T08:25:53.345Z,50.849548
2023-04-27T08:26:53.466Z,50.849560
2023-04-27T08:27:53.349Z,50.849533
2023-04-27T08:28:53.346Z,50.849525
2023-04-27T08:29:53.316Z,50.849533
2023-04-27T08:30:53.370Z,50.849522
2023-04-27T08:31:55.678Z,50.849495
2023-04-27T08:32:53.384Z,50.849525
2023-04-27T08:33:53.276Z,50.849545
2023-04-27T08:34:53.270Z,50.849533
2023-04-27T08:35:53.255Z,50.849514
2023-04-27T08:36:53.632Z,50.849503
2023-04-27T08:37:53.232Z,50.849514
2023-04-27T08:38:53.267Z,50.849522
2023-04-27T08:39:53.252Z,50.849537
2023-04-27T08:40:53.239Z,50.849537
2023-04-27T08:41:53.225Z,50.849522
2023-04-27T08:42:53.237Z,50.849552
2023-04-27T08:43:53.205Z,50.849529
2023-04-27T08:44:53.270Z,50.849537
2023-04-27T08:45:53.295Z,50.849529
2023-04-27T08:46:53.241Z,50.849537
2023-04-27T08:47:53.181Z,50.849598
2023-04-27T08:48:53.213Z,50.849586
2023-04-27T08:49:54.090Z,50.849552
2023-04-27T08:50:53.176Z,50.849602
2023-04-27T08:51:53.166Z,50.849644
2023-04-27T08:52:53.149Z,50.849594
2023-04-27T08:53:53.139Z,50.849545
2023-04-27T08:54:53.118Z,50.849567
2023-04-27T08:55:53.110Z,50.849606
2023-04-27T08:56:53.146Z,50.849598
2023-04-27T08:57:53.086Z,50.849583
2023-04-27T08:58:53.107Z,50.849586
2023-04-27T08:59:53.090Z,50.849590
2023-04-27T09:00:53.085Z,50.849602
2023-04-27T09:01:53.274Z,50.849594
2023-04-27T09:02:53.223Z,50.849590
2023-04-27T09:03:53.229Z,50.849617
2023-04-27T09:04:53.161Z,50.849586
2023-04-27T09:06:03.794Z,50.849590
2023-04-27T09:06:54.063Z,50.849651
2023-04-27T09:07:53.025Z,50.849613
2023-04-27T09:08:53.013Z,50.849571
2023-04-27T09:09:53.014Z,50.849590
2023-04-27T09:10:53.004Z,50.849648
2023-04-27T09:11:52.984Z,50.849583
2023-04-27T09:12:53.064Z,50.849571
2023-04-27T09:13:53.611Z,50.849625
2023-04-27T09:14:52.970Z,50.849594
2023-04-27T09:15:52.992Z,50.849628
2023-04-27T09:16:53.034Z,50.849648
2023-04-27T09:17:52.970Z,50.849571
2023-04-27T09:18:53.045Z,50.849491
2023-04-27T09:19:52.975Z,50.849312
2023-04-27T09:20:52.936Z,50.849503
2023-04-27T09:21:52.913Z,50.849655
2023-04-27T09:22:52.915Z,50.849594
2023-04-27T09:23:52.901Z,50.849583
2023-04-27T09:24:52.910Z,50.849586
2023-04-27T09:25:52.884Z,50.849567
2023-04-27T09:26:52.869Z,50.849548
2023-04-27T09:27:52.869Z,50.849552
2023-04-27T09:28:52.844Z,50.849548
2023-04-27T09:29:52.863Z,50.849541
2023-04-27T09:30:52.882Z,50.849522
2023-04-27T09:31:52.870Z,50.849533
2023-04-27T09:32:52.930Z,50.849525
2023-04-27T09:33:52.854Z,50.849545
2023-04-27T09:34:52.798Z,50.849518
2023-04-27T09:35:52.819Z,50.849533
2023-04-27T09:36:52.815Z,50.849529
2023-04-27T09:37:52.806Z,50.849545
2023-04-27T09:38:52.765Z,50.849548
2023-04-27T09:39:52.782Z,50.849560
2023-04-27T09:40:52.774Z,50.849548
2023-04-27T09:41:52.799Z,50.849525
2023-04-27T09:42:52.777Z,50.849529
2023-04-27T09:43:52.744Z,50.849518
2023-04-27T09:44:52.725Z,50.849503
2023-04-27T09:45:52.764Z,50.849525
2023-04-27T09:46:52.703Z,50.849541
2023-04-27T09:47:52.833Z,50.849545
2023-04-27T09:48:52.696Z,50.849545
2023-04-27T09:49:52.689Z,50.849548
2023-04-27T09:50:52.680Z,50.849537
2023-04-27T09:51:52.672Z,50.849567
2023-04-27T09:52:52.668Z,50.849537
2023-04-27T09:53:52.680Z,50.849541
2023-04-27T09:54:52.640Z,50.849514
2023-04-27T09:55:52.646Z,50.849522
2023-04-27T09:56:52.632Z,50.849503
2023-04-27T09:57:52.626Z,50.849522
2023-04-27T09:58:52.655Z,50.849506
2023-04-27T09:59:52.616Z,50.849560
2023-04-27T10:00:52.642Z,50.849522
2023-04-27T10:01:52.641Z,50.849514
2023-04-27T10:02:53.784Z,50.849541
2023-04-27T10:03:52.660Z,50.849537
2023-04-27T10:04:52.680Z,50.849525
2023-04-27T10:05:52.553Z,50.849533
2023-04-27T10:06:52.738Z,50.849556
2023-04-27T10:07:52.731Z,50.849548
2023-04-27T10:08:52.698Z,50.849529
2023-04-27T10:09:52.558Z,50.849529
2023-04-27T10:10:53.164Z,50.849541
2023-04-27T10:11:52.540Z,50.849533
2023-04-27T10:12:52.494Z,50.849529
2023-04-27T10:13:54.266Z,50.849541
2023-04-27T10:14:52.476Z,50.849525
2023-04-27T10:15:52.525Z,50.849545
2023-04-27T10:16:52.507Z,50.849522
2023-04-27T10:17:52.476Z,50.849529
2023-04-27T10:18:52.524Z,50.849518
2023-04-27T10:19:54.309Z,50.849518
2023-04-27T10:20:52.429Z,50.849525
2023-04-27T10:21:52.443Z,50.849525
2023-04-27T10:22:52.453Z,50.849510
2023-04-27T10:23:52.403Z,50.849506
2023-04-27T10:24:52.430Z,50.849518
2023-04-27T10:25:52.380Z,50.849514
2023-04-27T10:26:52.390Z,50.849529
2023-04-27T10:27:52.441Z,50.849541
2023-04-27T10:28:52.359Z,50.849514
2023-04-27T10:29:52.361Z,50.849522
2023-04-27T10:30:52.380Z,50.849533
2023-04-27T10:31:52.359Z,50.849548
2023-04-27T10:32:52.400Z,50.849537
2023-04-27T10:33:52.360Z,50.849514
2023-04-27T10:34:52.311Z,50.849514
2023-04-27T10:35:52.309Z,50.849533
2023-04-27T10:36:52.292Z,50.849545
2023-04-27T10:37:52.332Z,50.849545
2023-04-27T10:38:52.267Z,50.849545
2023-04-27T10:39:54.750Z,50.849537
2023-04-27T10:40:52.250Z,50.849567
2023-04-27T10:41:52.277Z,50.849545
2023-04-27T10:42:52.238Z,50.849537
2023-04-27T10:43:52.242Z,50.849514
2023-04-27T10:44:52.262Z,50.849545
2023-04-27T10:45:52.305Z,50.849552
2023-04-27T10:46:52.212Z,50.849525
2023-04-27T10:47:52.265Z,50.849529
2023-04-27T10:48:52.189Z,50.849541
2023-04-27T10:49:52.210Z,50.849506
2023-04-27T10:50:52.218Z,50.849510
2023-04-27T10:51:52.216Z,50.849506
2023-04-27T10:52:52.199Z,50.849518
2023-04-27T10:53:52.165Z,50.849510
2023-04-27T10:54:52.174Z,50.849510
2023-04-27T10:55:52.146Z,50.849506
2023-04-27T10:56:52.177Z,50.849503
2023-04-27T10:57:52.119Z,50.849495
2023-04-27T10:58:52.099Z,50.849537
2023-04-27T10:59:52.104Z,50.849529
2023-04-27T11:00:52.086Z,50.849518
2023-04-27T11:01:52.140Z,50.849487
2023-04-27T11:02:52.184Z,50.849495
2023-04-27T11:03:52.157Z,50.849491
2023-04-27T11:04:52.086Z,50.849503
2023-04-27T11:05:52.067Z,50.849506
2023-04-27T11:06:52.086Z,50.849529
2023-04-27T11:07:52.062Z,50.849541
2023-04-27T11:08:52.134Z,50.849525
2023-04-27T11:09:52.048Z,50.849518
2023-04-27T11:10:52.023Z,50.849506
2023-04-27T11:11:52.136Z,50.849514
2023-04-27T11:12:51.970Z,50.849506
2023-04-27T11:13:51.991Z,50.849510
2023-04-27T11:14:51.996Z,50.849503
2023-04-27T11:15:51.990Z,50.849529
2023-04-27T11:16:51.954Z,50.849514
2023-04-27T11:17:52.077Z,50.849495
2023-04-27T11:18:51.938Z,50.849483
2023-04-27T11:19:51.979Z,50.849503
2023-04-27T11:20:51.951Z,50.849499
2023-04-27T11:21:51.955Z,50.849480
2023-04-27T11:22:51.932Z,50.849480
2023-04-27T11:23:51.917Z,50.849491
2023-04-27T11:24:51.942Z,50.849480